sensor_id;sensor_type;location;lat;lon;timestamp;pressure;altitude;pressure_sealevel;temperature;humidity
44988;BME280;35735;52.226;21.254;2023-08-24T00:03:09;100486.66;;;16.71;100.00
44988;BME280;35735;52.226;21.254;2023-08-24T00:08:10;100483.16;;;16.66;100.00
44988;BME280;35735;52.226;21.254;2023-08-24T00:13:10;100476.69;;;16.70;100.00
44988;BME280;35735;52.226;21.254;2023-08-24T00:18:11;100486.78;;;16.65;100.00
44988;BME280;35735;52.226;21.254;2023-08-24T00:23:11;100481.13;;;16.74;100.00
44988;BME280;35735;52.226;21.254;2023-08-24T00:28:12;100479.25;;;16.76;100.00
44988;BME280;35735;52.226;21.254;2023-08-24T00:33:15;100473.75;;;16.79;100.00
44988;BME280;35735;52.226;21.254;2023-08-24T00:38:16;100471.81;;;16.84;100.00
44988;BME280;35735;52.226;21.254;2023-08-24T00:43:16;100477.25;;;16.86;100.00
44988;BME280;35735;52.226;21.254;2023-08-24T00:48:18;100467.25;;;16.83;100.00
44988;BME280;35735;52.226;21.254;2023-08-24T00:53:20;100463.84;;;16.75;100.00
44988;BME280;35735;52.226;21.254;2023-08-24T00:58:21;100467.72;;;16.65;100.00
44988;BME280;35735;52.226;21.254;2023-08-24T01:03:22;100470.44;;;16.65;100.00
44988;BME280;35735;52.226;21.254;2023-08-24T01:08:23;100465.19;;;16.57;100.00
44988;BME280;35735;52.226;21.254;2023-08-24T01:13:31;100465.13;;;16.59;100.00
44988;BME280;35735;52.226;21.254;2023-08-24T01:18:40;100467.00;;;16.57;100.00
44988;BME280;35735;52.226;21.254;2023-08-24T01:29:18;100464.56;;;16.46;100.00
44988;BME280;35735;52.226;21.254;2023-08-24T01:34:19;100462.72;;;16.46;100.00
44988;BME280;35735;52.226;21.254;2023-08-24T01:39:30;100462.06;;;16.35;100.00
44988;BME280;35735;52.226;21.254;2023-08-24T01:44:35;100464.00;;;16.30;100.00
44988;BME280;35735;52.226;21.254;2023-08-24T01:49:39;100457.53;;;16.36;100.00
44988;BME280;35735;52.226;21.254;2023-08-24T01:54:40;100453.87;;;16.35;100.00
44988;BME280;35735;52.226;21.254;2023-08-24T01:59:41;100443.72;;;16.43;100.00
44988;BME280;35735;52.226;21.254;2023-08-24T02:04:42;100449.22;;;16.40;100.00
44988;BME280;35735;52.226;21.254;2023-08-24T02:09:43;100450.09;;;16.44;100.00
44988;BME280;35735;52.226;21.254;2023-08-24T02:14:43;100455.22;;;16.56;100.00
44988;BME280;35735;52.226;21.254;2023-08-24T02:19:44;100444.19;;;16.62;100.00
44988;BME280;35735;52.226;21.254;2023-08-24T02:24:44;100439.75;;;16.57;100.00
44988;BME280;35735;52.226;21.254;2023-08-24T02:29:45;100438.84;;;16.58;100.00
44988;BME280;35735;52.226;21.254;2023-08-24T02:34:45;100438.19;;;16.46;100.00
44988;BME280;35735;52.226;21.254;2023-08-24T02:39:46;100432.03;;;16.38;100.00
44988;BME280;35735;52.226;21.254;2023-08-24T02:44:47;100425.81;;;16.33;100.00
44988;BME280;35735;52.226;21.254;2023-08-24T02:49:47;100434.00;;;16.32;100.00
44988;BME280;35735;52.226;21.254;2023-08-24T02:54:48;100440.63;;;16.20;100.00
44988;BME280;35735;52.226;21.254;2023-08-24T02:59:48;100447.19;;;16.11;100.00
44988;BME280;35735;52.226;21.254;2023-08-24T03:04:49;100438.31;;;16.03;100.00
44988;BME280;35735;52.226;21.254;2023-08-24T03:09:50;100444.69;;;16.00;100.00
44988;BME280;35735;52.226;21.254;2023-08-24T03:14:51;100448.22;;;16.05;100.00
44988;BME280;35735;52.226;21.254;2023-08-24T03:19:52;100440.69;;;16.17;100.00
44988;BME280;35735;52.226;21.254;2023-08-24T03:24:53;100444.37;;;16.16;100.00
44988;BME280;35735;52.226;21.254;2023-08-24T03:29:53;100455.69;;;15.97;100.00
44988;BME280;35735;52.226;21.254;2023-08-24T03:35:00;100450.25;;;15.96;100.00
44988;BME280;35735;52.226;21.254;2023-08-24T03:40:01;100448.81;;;15.78;100.00
44988;BME280;35735;52.226;21.254;2023-08-24T03:45:02;100448.91;;;15.71;100.00
44988;BME280;35735;52.226;21.254;2023-08-24T03:50:03;100438.94;;;15.72;100.00
44988;BME280;35735;52.226;21.254;2023-08-24T03:55:05;100431.59;;;15.77;100.00
44988;BME280;35735;52.226;21.254;2023-08-24T04:00:07;100427.81;;;15.84;100.00
44988;BME280;35735;52.226;21.254;2023-08-24T04:05:08;100438.69;;;15.84;100.00
44988;BME280;35735;52.226;21.254;2023-08-24T04:10:08;100443.16;;;15.87;100.00
44988;BME280;35735;52.226;21.254;2023-08-24T04:15:09;100443.41;;;15.74;100.00
44988;BME280;35735;52.226;21.254;2023-08-24T04:20:11;100447.91;;;15.79;100.00
44988;BME280;35735;52.226;21.254;2023-08-24T04:25:11;100449.63;;;15.83;100.00
44988;BME280;35735;52.226;21.254;2023-08-24T04:30:12;100450.34;;;15.91;100.00
44988;BME280;35735;52.226;21.254;2023-08-24T04:35:12;100445.59;;;16.02;100.00
44988;BME280;35735;52.226;21.254;2023-08-24T04:40:13;100459.66;;;16.21;100.00
44988;BME280;35735;52.226;21.254;2023-08-24T04:45:13;100458.13;;;16.48;100.00
44988;BME280;35735;52.226;21.254;2023-08-24T04:50:14;100454.03;;;16.68;100.00
44988;BME280;35735;52.226;21.254;2023-08-24T04:55:15;100462.41;;;16.98;100.00
44988;BME280;35735;52.226;21.254;2023-08-24T05:00:15;100456.19;;;17.26;100.00
44988;BME280;35735;52.226;21.254;2023-08-24T05:05:16;100458.94;;;17.58;100.00
44988;BME280;35735;52.226;21.254;2023-08-24T05:10:17;100454.78;;;18.09;100.00
44988;BME280;35735;52.226;21.254;2023-08-24T05:15:18;100454.09;;;18.59;100.00
44988;BME280;35735;52.226;21.254;2023-08-24T05:20:18;100465.31;;;19.06;100.00
44988;BME280;35735;52.226;21.254;2023-08-24T05:25:19;100465.91;;;19.41;100.00
44988;BME280;35735;52.226;21.254;2023-08-24T05:30:19;100468.22;;;19.79;100.00
44988;BME280;35735;52.226;21.254;2023-08-24T05:35:20;100464.34;;;20.10;100.00
44988;BME280;35735;52.226;21.254;2023-08-24T05:40:20;100469.34;;;20.44;100.00
44988;BME280;35735;52.226;21.254;2023-08-24T05:45:21;100467.22;;;20.75;100.00
44988;BME280;35735;52.226;21.254;2023-08-24T05:50:21;100471.44;;;21.05;100.00
44988;BME280;35735;52.226;21.254;2023-08-24T05:55:22;100469.22;;;21.36;100.00
44988;BME280;35735;52.226;21.254;2023-08-24T06:00:23;100472.34;;;21.69;100.00
44988;BME280;35735;52.226;21.254;2023-08-24T06:05:23;100467.81;;;22.08;100.00
44988;BME280;35735;52.226;21.254;2023-08-24T06:10:24;100474.34;;;22.45;100.00
44988;BME280;35735;52.226;21.254;2023-08-24T06:15:24;100475.75;;;22.72;100.00
44988;BME280;35735;52.226;21.254;2023-08-24T06:20:25;100471.66;;;22.99;100.00
44988;BME280;35735;52.226;21.254;2023-08-24T06:25:25;100476.50;;;23.30;100.00
44988;BME280;35735;52.226;21.254;2023-08-24T06:30:26;100481.13;;;23.64;100.00
44988;BME280;35735;52.226;21.254;2023-08-24T06:35:27;100480.81;;;23.88;98.72
44988;BME280;35735;52.226;21.254;2023-08-24T06:40:28;100475.16;;;24.07;98.13
44988;BME280;35735;52.226;21.254;2023-08-24T06:45:29;100470.87;;;24.35;97.14
44988;BME280;35735;52.226;21.254;2023-08-24T06:50:30;100473.84;;;24.64;96.34
44988;BME280;35735;52.226;21.254;2023-08-24T06:55:30;100471.91;;;24.98;95.74
44988;BME280;35735;52.226;21.254;2023-08-24T07:00:31;100476.38;;;25.30;94.58
44988;BME280;35735;52.226;21.254;2023-08-24T07:05:32;100473.69;;;25.59;93.69
44988;BME280;35735;52.226;21.254;2023-08-24T07:10:32;100477.13;;;25.93;93.01
44988;BME280;35735;52.226;21.254;2023-08-24T07:15:33;100480.94;;;26.06;90.60
44988;BME280;35735;52.226;21.254;2023-08-24T07:20:34;100487.84;;;26.28;90.14
44988;BME280;35735;52.226;21.254;2023-08-24T07:25:35;100493.16;;;26.60;89.38
44988;BME280;35735;52.226;21.254;2023-08-24T07:30:36;100491.25;;;26.89;88.52
44988;BME280;35735;52.226;21.254;2023-08-24T07:35:36;100487.87;;;27.11;86.80
44988;BME280;35735;52.226;21.254;2023-08-24T07:40:37;100491.13;;;27.32;85.71
44988;BME280;35735;52.226;21.254;2023-08-24T07:45:37;100497.06;;;27.53;85.22
44988;BME280;35735;52.226;21.254;2023-08-24T07:50:38;100494.41;;;27.65;82.63
44988;BME280;35735;52.226;21.254;2023-08-24T07:55:39;100492.09;;;27.84;81.65
44988;BME280;35735;52.226;21.254;2023-08-24T08:00:39;100493.47;;;28.04;80.94
44988;BME280;35735;52.226;21.254;2023-08-24T08:05:40;100498.47;;;28.12;79.06
44988;BME280;35735;52.226;21.254;2023-08-24T08:10:41;100488.03;;;28.16;78.91
44988;BME280;35735;52.226;21.254;2023-08-24T08:15:41;100485.28;;;28.28;78.43
44988;BME280;35735;52.226;21.254;2023-08-24T08:20:42;100484.91;;;28.46;77.21
44988;BME280;35735;52.226;21.254;2023-08-24T08:25:42;100483.56;;;28.64;76.18
44988;BME280;35735;52.226;21.254;2023-08-24T08:30:44;100473.31;;;28.78;75.74
44988;BME280;35735;52.226;21.254;2023-08-24T08:35:45;100482.03;;;28.97;75.30
44988;BME280;35735;52.226;21.254;2023-08-24T08:40:46;100483.06;;;29.21;73.86
44988;BME280;35735;52.226;21.254;2023-08-24T08:45:49;100480.59;;;29.16;72.88
44988;BME280;35735;52.226;21.254;2023-08-24T08:50:52;100481.06;;;29.10;71.32
44988;BME280;35735;52.226;21.254;2023-08-24T08:55:54;100472.28;;;29.16;72.02
44988;BME280;35735;52.226;21.254;2023-08-24T09:00:55;100474.41;;;29.36;71.02
44988;BME280;35735;52.226;21.254;2023-08-24T09:05:56;100472.72;;;29.58;70.75
44988;BME280;35735;52.226;21.254;2023-08-24T09:11:00;100469.62;;;29.74;70.46
44988;BME280;35735;52.226;21.254;2023-08-24T09:16:05;100472.94;;;29.79;68.71
44988;BME280;35735;52.226;21.254;2023-08-24T09:21:10;100474.53;;;29.70;68.92
44988;BME280;35735;52.226;21.254;2023-08-24T09:26:11;100470.22;;;29.66;68.75
44988;BME280;35735;52.226;21.254;2023-08-24T09:31:12;100469.53;;;29.51;69.21
44988;BME280;35735;52.226;21.254;2023-08-24T09:36:14;100471.91;;;29.45;68.14
44988;BME280;35735;52.226;21.254;2023-08-24T09:41:14;100465.59;;;29.18;68.21
44988;BME280;35735;52.226;21.254;2023-08-24T09:46:18;100451.25;;;29.12;69.70
44988;BME280;35735;52.226;21.254;2023-08-24T09:51:19;100450.50;;;29.10;68.79
44988;BME280;35735;52.226;21.254;2023-08-24T09:56:21;100452.28;;;29.11;68.81
44988;BME280;35735;52.226;21.254;2023-08-24T10:01:24;100449.59;;;29.22;68.46
44988;BME280;35735;52.226;21.254;2023-08-24T10:06:27;100444.34;;;29.42;68.07
44988;BME280;35735;52.226;21.254;2023-08-24T10:11:28;100446.56;;;29.61;67.60
44988;BME280;35735;52.226;21.254;2023-08-24T10:16:29;100445.00;;;29.81;66.82
44988;BME280;35735;52.226;21.254;2023-08-24T10:21:30;100451.34;;;29.94;65.31
44988;BME280;35735;52.226;21.254;2023-08-24T10:26:32;100451.88;;;29.99;65.16
44988;BME280;35735;52.226;21.254;2023-08-24T10:31:33;100440.37;;;30.04;65.07
44988;BME280;35735;52.226;21.254;2023-08-24T10:36:34;100445.53;;;30.08;66.21
44988;BME280;35735;52.226;21.254;2023-08-24T10:41:47;100448.06;;;30.11;66.03
44988;BME280;35735;52.226;21.254;2023-08-24T10:47:11;100436.44;;;30.29;64.87
44988;BME280;35735;52.226;21.254;2023-08-24T10:52:24;100440.22;;;30.17;63.79
44988;BME280;35735;52.226;21.254;2023-08-24T10:57:38;100437.94;;;29.99;64.04
44988;BME280;35735;52.226;21.254;2023-08-24T11:07:55;100441.66;;;29.64;66.16
44988;BME280;35735;52.226;21.254;2023-08-24T11:13:05;100423.53;;;29.59;66.41
44988;BME280;35735;52.226;21.254;2023-08-24T11:18:27;100427.75;;;29.64;66.93
44988;BME280;35735;52.226;21.254;2023-08-24T11:23:29;100417.63;;;29.63;67.33
44988;BME280;35735;52.226;21.254;2023-08-24T11:28:30;100418.38;;;29.65;67.31
44988;BME280;35735;52.226;21.254;2023-08-24T11:33:35;100417.66;;;29.74;66.44
44988;BME280;35735;52.226;21.254;2023-08-24T11:43:36;100405.75;;;29.61;64.57
44988;BME280;35735;52.226;21.254;2023-08-24T11:48:40;100408.41;;;29.63;64.11
44988;BME280;35735;52.226;21.254;2023-08-24T11:53:45;100413.09;;;29.62;65.13
44988;BME280;35735;52.226;21.254;2023-08-24T11:58:48;100397.91;;;29.66;65.49
44988;BME280;35735;52.226;21.254;2023-08-24T12:03:49;100388.84;;;29.75;65.52
44988;BME280;35735;52.226;21.254;2023-08-24T12:08:52;100386.09;;;29.98;64.59
44988;BME280;35735;52.226;21.254;2023-08-24T12:13:54;100378.50;;;29.89;64.41
44988;BME280;35735;52.226;21.254;2023-08-24T12:18:56;100373.94;;;29.88;64.69
44988;BME280;35735;52.226;21.254;2023-08-24T12:23:59;100376.22;;;29.83;63.39
44988;BME280;35735;52.226;21.254;2023-08-24T12:29:04;100369.13;;;29.79;64.50
44988;BME280;35735;52.226;21.254;2023-08-24T12:34:06;100364.69;;;29.76;64.73
44988;BME280;35735;52.226;21.254;2023-08-24T12:39:08;100357.84;;;29.69;64.06
44988;BME280;35735;52.226;21.254;2023-08-24T12:44:08;100352.00;;;29.72;63.59
44988;BME280;35735;52.226;21.254;2023-08-24T12:49:09;100350.25;;;29.71;63.86
44988;BME280;35735;52.226;21.254;2023-08-24T12:54:09;100346.31;;;29.73;63.31
44988;BME280;35735;52.226;21.254;2023-08-24T12:59:10;100354.94;;;29.70;63.11
44988;BME280;35735;52.226;21.254;2023-08-24T13:04:10;100353.03;;;29.60;63.61
44988;BME280;35735;52.226;21.254;2023-08-24T13:09:11;100345.06;;;29.55;63.49
44988;BME280;35735;52.226;21.254;2023-08-24T13:14:11;100338.84;;;29.51;64.48
44988;BME280;35735;52.226;21.254;2023-08-24T13:19:12;100341.34;;;29.32;64.80
44988;BME280;35735;52.226;21.254;2023-08-24T13:24:13;100337.91;;;29.17;65.32
44988;BME280;35735;52.226;21.254;2023-08-24T13:29:13;100316.84;;;29.01;64.29
44988;BME280;35735;52.226;21.254;2023-08-24T13:34:14;100322.03;;;28.71;66.69
44988;BME280;35735;52.226;21.254;2023-08-24T13:39:14;100330.44;;;28.58;68.42
44988;BME280;35735;52.226;21.254;2023-08-24T13:44:15;100318.34;;;28.46;69.06
44988;BME280;35735;52.226;21.254;2023-08-24T13:49:17;100306.41;;;28.33;69.27
44988;BME280;35735;52.226;21.254;2023-08-24T13:54:19;100320.53;;;28.30;70.01
44988;BME280;35735;52.226;21.254;2023-08-24T13:59:20;100300.91;;;28.20;70.37
44988;BME280;35735;52.226;21.254;2023-08-24T14:04:20;100300.59;;;28.12;69.83
44988;BME280;35735;52.226;21.254;2023-08-24T14:09:21;100305.88;;;28.03;70.33
44988;BME280;35735;52.226;21.254;2023-08-24T14:14:21;100303.66;;;27.96;69.69
44988;BME280;35735;52.226;21.254;2023-08-24T14:19:23;100300.09;;;27.81;70.74
44988;BME280;35735;52.226;21.254;2023-08-24T14:24:24;100286.47;;;27.78;70.49
44988;BME280;35735;52.226;21.254;2023-08-24T14:29:24;100293.03;;;27.64;69.77
44988;BME280;35735;52.226;21.254;2023-08-24T14:34:25;100284.81;;;27.49;71.08
44988;BME280;35735;52.226;21.254;2023-08-24T14:39:25;100305.25;;;27.48;71.27
44988;BME280;35735;52.226;21.254;2023-08-24T14:44:27;100301.03;;;27.43;71.73
44988;BME280;35735;52.226;21.254;2023-08-24T14:49:27;100295.03;;;27.36;72.13
44988;BME280;35735;52.226;21.254;2023-08-24T14:54:28;100293.94;;;27.39;72.07
44988;BME280;35735;52.226;21.254;2023-08-24T14:59:28;100289.50;;;27.36;71.32
44988;BME280;35735;52.226;21.254;2023-08-24T15:04:29;100288.63;;;27.35;71.20
44988;BME280;35735;52.226;21.254;2023-08-24T15:09:30;100292.81;;;27.41;71.39
44988;BME280;35735;52.226;21.254;2023-08-24T15:14:31;100281.50;;;27.44;71.32
44988;BME280;35735;52.226;21.254;2023-08-24T15:19:32;100288.19;;;27.42;71.33
44988;BME280;35735;52.226;21.254;2023-08-24T15:24:32;100285.94;;;27.34;71.09
44988;BME280;35735;52.226;21.254;2023-08-24T15:29:33;100281.81;;;27.27;71.22
44988;BME280;35735;52.226;21.254;2023-08-24T15:34:34;100278.94;;;27.28;71.63
44988;BME280;35735;52.226;21.254;2023-08-24T15:39:38;100272.59;;;27.26;72.00
44988;BME280;35735;52.226;21.254;2023-08-24T15:44:39;100267.63;;;27.18;72.27
44988;BME280;35735;52.226;21.254;2023-08-24T15:49:39;100267.09;;;27.13;73.11
44988;BME280;35735;52.226;21.254;2023-08-24T15:54:40;100272.84;;;27.10;73.52
44988;BME280;35735;52.226;21.254;2023-08-24T15:59:41;100271.50;;;27.03;73.50
44988;BME280;35735;52.226;21.254;2023-08-24T16:04:43;100267.59;;;26.93;74.23
44988;BME280;35735;52.226;21.254;2023-08-24T16:09:44;100256.63;;;26.91;73.72
44988;BME280;35735;52.226;21.254;2023-08-24T16:14:45;100249.66;;;26.86;73.75
44988;BME280;35735;52.226;21.254;2023-08-24T16:19:45;100246.34;;;26.80;73.75
44988;BME280;35735;52.226;21.254;2023-08-24T16:24:46;100251.75;;;26.82;74.28
44988;BME280;35735;52.226;21.254;2023-08-24T16:29:46;100258.19;;;26.83;74.74
44988;BME280;35735;52.226;21.254;2023-08-24T16:34:47;100244.53;;;26.79;75.27
44988;BME280;35735;52.226;21.254;2023-08-24T16:39:47;100238.66;;;26.71;75.47
44988;BME280;35735;52.226;21.254;2023-08-24T16:44:48;100247.31;;;26.67;75.41
44988;BME280;35735;52.226;21.254;2023-08-24T16:49:49;100248.19;;;26.67;75.73
44988;BME280;35735;52.226;21.254;2023-08-24T16:54:49;100241.28;;;26.60;75.64
44988;BME280;35735;52.226;21.254;2023-08-24T16:59:50;100244.56;;;26.52;75.12
44988;BME280;35735;52.226;21.254;2023-08-24T17:04:50;100244.13;;;26.46;75.79
44988;BME280;35735;52.226;21.254;2023-08-24T17:09:51;100248.97;;;26.42;76.05
44988;BME280;35735;52.226;21.254;2023-08-24T17:14:51;100229.66;;;26.28;76.55
44988;BME280;35735;52.226;21.254;2023-08-24T17:19:52;100232.50;;;26.13;77.63
44988;BME280;35735;52.226;21.254;2023-08-24T17:24:52;100240.06;;;25.97;78.56
44988;BME280;35735;52.226;21.254;2023-08-24T17:29:53;100244.13;;;25.77;79.87
44988;BME280;35735;52.226;21.254;2023-08-24T17:34:54;100253.94;;;25.54;81.04
44988;BME280;35735;52.226;21.254;2023-08-24T17:39:54;100258.56;;;25.39;82.11
44988;BME280;35735;52.226;21.254;2023-08-24T17:44:55;100244.34;;;25.16;83.04
44988;BME280;35735;52.226;21.254;2023-08-24T17:49:55;100247.34;;;24.97;83.54
44988;BME280;35735;52.226;21.254;2023-08-24T17:54:56;100235.22;;;24.71;84.24
44988;BME280;35735;52.226;21.254;2023-08-24T17:59:57;100234.69;;;24.48;85.00
44988;BME280;35735;52.226;21.254;2023-08-24T18:04:58;100249.00;;;24.25;85.98
44988;BME280;35735;52.226;21.254;2023-08-24T18:09:58;100247.25;;;24.08;86.38
44988;BME280;35735;52.226;21.254;2023-08-24T18:14:59;100251.44;;;23.83;87.08
44988;BME280;35735;52.226;21.254;2023-08-24T18:19:59;100271.75;;;23.64;87.48
44988;BME280;35735;52.226;21.254;2023-08-24T18:25:00;100265.09;;;23.35;88.39
44988;BME280;35735;52.226;21.254;2023-08-24T18:30:00;100275.19;;;23.19;88.96
44988;BME280;35735;52.226;21.254;2023-08-24T18:35:01;100289.84;;;23.02;89.57
44988;BME280;35735;52.226;21.254;2023-08-24T18:40:03;100291.91;;;22.81;90.73
44988;BME280;35735;52.226;21.254;2023-08-24T18:45:05;100293.66;;;22.64;91.65
44988;BME280;35735;52.226;21.254;2023-08-24T18:50:06;100282.81;;;22.44;92.54
44988;BME280;35735;52.226;21.254;2023-08-24T18:55:07;100288.53;;;22.20;93.50
44988;BME280;35735;52.226;21.254;2023-08-24T19:00:08;100287.19;;;21.92;94.53
44988;BME280;35735;52.226;21.254;2023-08-24T19:05:09;100278.78;;;21.76;95.46
44988;BME280;35735;52.226;21.254;2023-08-24T19:10:10;100274.66;;;21.68;95.89
44988;BME280;35735;52.226;21.254;2023-08-24T19:15:11;100274.28;;;21.56;96.30
44988;BME280;35735;52.226;21.254;2023-08-24T19:20:11;100281.47;;;21.38;96.50
44988;BME280;35735;52.226;21.254;2023-08-24T19:25:12;100287.56;;;21.26;97.17
44988;BME280;35735;52.226;21.254;2023-08-24T19:30:12;100293.56;;;21.15;97.89
44988;BME280;35735;52.226;21.254;2023-08-24T19:35:13;100293.28;;;21.01;98.30
44988;BME280;35735;52.226;21.254;2023-08-24T19:40:13;100294.59;;;20.92;98.79
44988;BME280;35735;52.226;21.254;2023-08-24T19:45:14;100285.97;;;20.81;99.34
44988;BME280;35735;52.226;21.254;2023-08-24T19:50:15;100286.28;;;20.73;99.69
44988;BME280;35735;52.226;21.254;2023-08-24T19:55:15;100269.41;;;20.62;100.00
44988;BME280;35735;52.226;21.254;2023-08-24T20:00:16;100277.34;;;20.47;100.00
44988;BME280;35735;52.226;21.254;2023-08-24T20:05:18;100281.69;;;20.31;100.00
44988;BME280;35735;52.226;21.254;2023-08-24T20:10:18;100282.72;;;20.06;100.00
44988;BME280;35735;52.226;21.254;2023-08-24T20:15:19;100283.22;;;19.94;100.00
44988;BME280;35735;52.226;21.254;2023-08-24T20:20:19;100283.69;;;19.83;100.00
44988;BME280;35735;52.226;21.254;2023-08-24T20:25:20;100280.16;;;19.79;100.00
44988;BME280;35735;52.226;21.254;2023-08-24T20:30:21;100281.25;;;19.74;100.00
44988;BME280;35735;52.226;21.254;2023-08-24T20:35:21;100270.53;;;19.68;100.00
44988;BME280;35735;52.226;21.254;2023-08-24T20:40:22;100262.00;;;19.53;100.00
44988;BME280;35735;52.226;21.254;2023-08-24T20:45:22;100275.00;;;19.48;100.00
44988;BME280;35735;52.226;21.254;2023-08-24T20:50:23;100277.06;;;19.41;100.00
44988;BME280;35735;52.226;21.254;2023-08-24T20:55:24;100271.00;;;19.33;100.00
44988;BME280;35735;52.226;21.254;2023-08-24T21:00:24;100264.75;;;19.30;100.00
44988;BME280;35735;52.226;21.254;2023-08-24T21:05:25;100255.03;;;19.21;100.00
44988;BME280;35735;52.226;21.254;2023-08-24T21:10:26;100254.53;;;19.11;100.00
44988;BME280;35735;52.226;21.254;2023-08-24T21:15:27;100249.16;;;19.08;100.00
44988;BME280;35735;52.226;21.254;2023-08-24T21:20:27;100252.66;;;18.88;100.00
44988;BME280;35735;52.226;21.254;2023-08-24T21:25:28;100257.00;;;18.94;100.00
44988;BME280;35735;52.226;21.254;2023-08-24T21:30:28;100239.81;;;18.90;100.00
44988;BME280;35735;52.226;21.254;2023-08-24T21:35:29;100243.75;;;18.81;100.00
44988;BME280;35735;52.226;21.254;2023-08-24T21:40:29;100241.28;;;18.74;100.00
44988;BME280;35735;52.226;21.254;2023-08-24T21:45:30;100243.28;;;18.68;100.00
44988;BME280;35735;52.226;21.254;2023-08-24T21:50:33;100242.62;;;18.62;100.00
44988;BME280;35735;52.226;21.254;2023-08-24T21:55:36;100230.41;;;18.47;100.00
44988;BME280;35735;52.226;21.254;2023-08-24T22:00:36;100233.25;;;18.44;100.00
44988;BME280;35735;52.226;21.254;2023-08-24T22:05:37;100237.41;;;18.29;100.00
44988;BME280;35735;52.226;21.254;2023-08-24T22:10:38;100243.09;;;18.23;100.00
44988;BME280;35735;52.226;21.254;2023-08-24T22:15:38;100248.06;;;18.10;100.00
44988;BME280;35735;52.226;21.254;2023-08-24T22:20:39;100248.19;;;18.07;100.00
44988;BME280;35735;52.226;21.254;2023-08-24T22:25:39;100245.00;;;17.92;100.00
44988;BME280;35735;52.226;21.254;2023-08-24T22:30:40;100233.09;;;17.95;100.00
44988;BME280;35735;52.226;21.254;2023-08-24T22:35:41;100233.87;;;17.99;100.00
44988;BME280;35735;52.226;21.254;2023-08-24T22:40:41;100221.34;;;17.93;100.00
44988;BME280;35735;52.226;21.254;2023-08-24T22:45:42;100218.12;;;17.78;100.00
44988;BME280;35735;52.226;21.254;2023-08-24T22:50:43;100223.97;;;17.68;100.00
44988;BME280;35735;52.226;21.254;2023-08-24T22:55:43;100216.84;;;17.62;100.00
44988;BME280;35735;52.226;21.254;2023-08-24T23:00:44;100212.03;;;17.42;100.00
44988;BME280;35735;52.226;21.254;2023-08-24T23:05:44;100211.38;;;17.34;100.00
44988;BME280;35735;52.226;21.254;2023-08-24T23:10:45;100204.75;;;17.43;100.00
44988;BME280;35735;52.226;21.254;2023-08-24T23:15:46;100190.28;;;17.39;100.00
44988;BME280;35735;52.226;21.254;2023-08-24T23:20:46;100187.69;;;17.36;100.00
44988;BME280;35735;52.226;21.254;2023-08-24T23:25:47;100169.88;;;17.24;100.00
44988;BME280;35735;52.226;21.254;2023-08-24T23:30:47;100162.19;;;17.07;100.00
44988;BME280;35735;52.226;21.254;2023-08-24T23:35:48;100162.50;;;16.98;100.00
44988;BME280;35735;52.226;21.254;2023-08-24T23:40:48;100147.81;;;17.02;100.00
44988;BME280;35735;52.226;21.254;2023-08-24T23:45:49;100143.59;;;16.92;100.00
44988;BME280;35735;52.226;21.254;2023-08-24T23:50:50;100151.16;;;16.80;100.00
44988;BME280;35735;52.226;21.254;2023-08-24T23:55:50;100151.06;;;16.85;100.00
